Time;durP1;ratioP1;P1;durP2;ratioP2;P2;SDS_P1;SDS_P2;PMS_P1;PMS_P2;Temp;Humidity;BMP_temperature;BMP_pressure;BME280_temperature;BME280_humidity;BME280_pressure;Samples;Min_cycle;Max_cycle;Signal;HPM_P1;HPM_P2
2023/06/04 00:02:16;;;;;;;;;;;15.40;30.50;;;14.63;29.31;101818.00;12262994;19;19911;-83
2023/06/04 00:06:17;;;;;;;;;;;15.40;30.60;;;14.46;29.45;101808.38;12259444;19;19918;-82
2023/06/04 00:10:19;;;;;;;;;;;15.40;30.70;;;14.48;29.42;101813.56;12257805;19;19919;-83
2023/06/04 00:14:21;;;;;;;;;;;15.30;30.70;;;14.39;29.38;101805.25;12258994;19;20260;-82
2023/06/04 00:18:22;;;;;;;;;;;15.20;30.60;;;14.31;29.54;101799.53;12256998;19;20012;-82
2023/06/04 00:22:24;;;;;;;;;;;15.20;30.60;;;14.35;29.49;101808.09;12258015;19;19918;-83
2023/06/04 00:26:25;;;;;;;;;;;15.20;30.70;;;14.35;29.64;101808.09;12256595;19;19938;-82
2023/06/04 00:30:27;;;;;;;;;;;15.10;30.70;;;14.29;29.54;101801.41;12257006;19;19919;-82
2023/06/04 00:34:30;;;;;;;;;;;15.10;30.80;;;14.27;29.71;101805.03;12256772;19;19966;-82
2023/06/04 00:38:31;;;;;;;;;;;15.10;30.80;;;14.14;29.70;101771.53;12254162;19;20318;-82
2023/06/04 00:42:33;;;;;;;;;;;15.10;30.80;;;14.10;29.72;101779.69;12253310;19;19926;-82
2023/06/04 00:46:35;;;;;;;;;;;15.00;30.80;;;14.06;29.84;101786.84;12249369;19;20270;-82
2023/06/04 00:50:38;;;;;;;;;;;15.00;30.80;;;14.02;29.85;101784.47;12251983;19;19926;-82
2023/06/04 00:54:40;;;;;;;;;;;14.90;30.90;;;13.64;29.89;101743.53;12251290;19;19911;-82
2023/06/04 00:58:42;;;;;;;;;;;14.90;30.90;;;13.79;29.85;101777.78;12253190;19;19932;-82
2023/06/04 01:02:50;;;;;;;;;;;14.80;30.90;;;13.58;29.83;101756.13;12267634;19;19915;-82
2023/06/04 01:06:56;;;;;;;;;;;14.70;30.80;;;13.61;29.96;101785.69;12263601;19;19914;-82
2023/06/04 01:10:57;;;;;;;;;;;14.60;30.80;;;13.44;30.04;101767.31;12265385;19;19934;-83
2023/06/04 01:14:59;;;;;;;;;;;14.50;30.90;;;13.50;30.01;101785.38;12265209;19;19911;-83
2023/06/04 01:19:04;;;;;;;;;;;14.40;30.90;;;13.31;30.02;101772.31;12263295;19;19915;-82
2023/06/04 01:23:34;;;;;;;;;;;14.40;31.00;;;13.32;30.06;101787.16;12269850;19;19930;-83
2023/06/04 01:27:36;;;;;;;;;;;14.30;30.90;;;13.17;30.03;101777.38;12265107;19;19911;-82
2023/06/04 01:31:38;;;;;;;;;;;14.20;31.10;;;13.06;30.04;101773.50;12265844;19;19970;-82
2023/06/04 01:35:39;;;;;;;;;;;14.10;31.10;;;13.04;30.17;101788.47;12263450;19;20277;-82
2023/06/04 01:39:41;;;;;;;;;;;14.00;31.10;;;12.93;30.23;101782.03;12269199;19;19974;-82
2023/06/04 01:43:43;;;;;;;;;;;14.00;31.10;;;12.94;30.16;101783.75;12265503;19;19919;-82
2023/06/04 01:47:45;;;;;;;;;;;13.80;31.10;;;12.79;30.20;101774.84;12260661;19;19915;-82
2023/06/04 01:51:47;;;;;;;;;;;13.80;31.20;;;12.74;30.42;101782.91;12264852;19;19921;-83
2023/06/04 01:55:50;;;;;;;;;;;13.70;31.20;;;12.52;30.45;101764.72;12263449;19;19915;-82
2023/06/04 01:59:51;;;;;;;;;;;13.60;31.20;;;12.44;30.42;101761.63;12264060;19;20337;-82
2023/06/04 02:03:53;;;;;;;;;;;13.50;31.20;;;12.51;30.56;101780.53;12268002;19;19918;-83
2023/06/04 02:07:54;;;;;;;;;;;13.50;31.30;;;12.20;30.61;101734.78;12263608;19;19925;-82
2023/06/04 02:11:56;;;;;;;;;;;13.40;31.30;;;12.38;30.53;101775.84;12267787;19;20374;-83
2023/06/04 02:15:58;;;;;;;;;;;13.40;31.40;;;12.29;30.62;101759.72;12259244;19;20336;-82
2023/06/04 02:20:00;;;;;;;;;;;13.30;31.40;;;12.33;30.62;101769.13;12263104;19;19911;-82
2023/06/04 02:24:01;;;;;;;;;;;13.30;31.50;;;12.27;30.74;101766.78;12264015;19;19915;-82
2023/06/04 02:28:03;;;;;;;;;;;13.30;31.50;;;12.27;30.58;101772.03;12263623;19;19911;-82
2023/06/04 02:32:05;;;;;;;;;;;13.30;31.60;;;12.18;30.58;101779.38;12266028;19;20277;-82
2023/06/04 02:36:06;;;;;;;;;;;13.20;31.40;;;12.08;30.69;101779.88;12262524;19;19925;-82
2023/06/04 02:40:09;;;;;;;;;;;13.10;31.30;;;11.97;30.80;101767.25;12267653;19;19947;-82
2023/06/04 02:44:11;;;;;;;;;;;13.00;31.50;;;11.80;30.81;101770.59;12265346;19;19915;-82
2023/06/04 02:48:12;;;;;;;;;;;12.90;31.70;;;11.69;31.02;101775.41;12261064;19;19919;-82
2023/06/04 02:52:14;;;;;;;;;;;12.80;31.60;;;11.64;31.09;101780.00;12260747;19;19926;-82
2023/06/04 02:56:15;;;;;;;;;;;12.70;31.50;;;11.28;30.92;101730.94;12259603;19;19919;-82
2023/06/04 03:00:17;;;;;;;;;;;12.60;31.60;;;11.58;30.89;101790.72;12256359;19;19925;-82
2023/06/04 03:04:20;;;;;;;;;;;12.50;31.80;;;11.42;31.01;101777.44;12259444;19;19919;-82
2023/06/04 03:08:22;;;;;;;;;;;12.50;31.80;;;11.49;31.26;101789.34;12255081;19;19918;-82
2023/06/04 03:12:24;;;;;;;;;;;12.50;31.70;;;11.36;31.16;101767.22;12265961;19;19922;-83
2023/06/04 03:16:26;;;;;;;;;;;12.50;31.80;;;11.46;31.17;101792.94;12258082;19;19940;-83
2023/06/04 03:20:28;;;;;;;;;;;12.50;31.90;;;11.30;31.10;101769.19;12261021;19;19986;-82
2023/06/04 03:24:29;;;;;;;;;;;12.40;32.00;;;11.20;31.28;101767.84;12258965;19;19923;-82
2023/06/04 03:28:32;;;;;;;;;;;12.40;31.90;;;11.11;31.37;101768.25;12257543;19;20256;-82
2023/06/04 03:32:35;;;;;;;;;;;12.30;31.80;;;11.04;31.23;101772.88;12262027;19;19914;-82
2023/06/04 03:36:38;;;;;;;;;;;12.20;31.80;;;10.98;31.28;101774.88;12257314;19;19964;-82
2023/06/04 03:40:41;;;;;;;;;;;12.10;31.90;;;10.91;31.43;101778.63;12262597;19;20342;-82
2023/06/04 03:44:44;;;;;;;;;;;12.00;31.90;;;10.67;31.28;101752.59;12257599;19;20322;-82
2023/06/04 03:48:46;;;;;;;;;;;12.00;32.10;;;10.77;31.45;101768.72;12259015;19;19918;-82
2023/06/04 03:52:50;;;;;;;;;;;11.90;32.40;;;10.77;31.55;101789.63;12257572;19;19919;-82
2023/06/04 03:56:52;;;;;;;;;;;11.90;32.40;;;10.73;31.56;101782.84;12255863;19;19940;-82
2023/06/04 04:00:54;;;;;;;;;;;11.80;32.30;;;10.74;31.54;101788.00;12257611;19;19935;-82
2023/06/04 04:04:57;;;;;;;;;;;11.80;32.30;;;10.70;31.53;101782.97;12254128;19;19922;-82
2023/06/04 04:08:58;;;;;;;;;;;11.80;32.30;;;10.70;31.59;101790.81;12254901;19;19915;-82
2023/06/04 04:13:00;;;;;;;;;;;11.80;32.40;;;10.57;31.91;101772.97;12254382;19;19919;-82
2023/06/04 04:17:05;;;;;;;;;;;11.80;33.00;;;10.62;31.77;101791.94;12256611;19;19932;-82
2023/06/04 04:21:07;;;;;;;;;;;11.70;32.70;;;10.42;31.77;101763.09;12255456;19;19915;-82
2023/06/04 04:25:09;;;;;;;;;;;11.70;32.70;;;10.57;31.72;101783.41;12252044;19;19921;-82
2023/06/04 04:29:12;;;;;;;;;;;11.70;32.70;;;10.69;32.01;101796.91;12250224;19;20253;-82
2023/06/04 04:33:17;;;;;;;;;;;11.80;32.80;;;10.73;32.10;101798.50;12248451;19;19911;-82
2023/06/04 04:37:21;;;;;;;;;;;11.80;33.00;;;10.47;31.94;101745.50;12247726;19;19926;-82
2023/06/04 04:41:25;;;;;;;;;;;11.90;33.00;;;10.57;32.13;101752.06;12249248;19;19918;-82
2023/06/04 04:45:29;;;;;;;;;;;11.90;33.00;;;10.80;32.08;101779.94;12249828;19;20246;-82
2023/06/04 04:49:35;;;;;;;;;;;12.00;33.10;;;10.92;32.17;101783.81;12250330;19;20285;-82
2023/06/04 04:53:36;;;;;;;;;;;12.10;33.20;;;11.02;32.30;101787.78;12243935;19;20303;-82
2023/06/04 04:57:39;;;;;;;;;;;12.20;33.40;;;11.18;32.24;101794.97;12245890;19;19918;-82
2023/06/04 05:01:41;;;;;;;;;;;12.30;33.50;;;11.28;32.38;101798.91;12246284;19;19934;-82
2023/06/04 05:05:43;;;;;;;;;;;12.50;33.70;;;11.24;32.42;101769.44;12251314;19;19918;-82
2023/06/04 05:10:24;;;;;;;;;;;12.60;33.90;;;11.59;32.52;101811.59;12251329;19;19915;-82
2023/06/04 05:14:27;;;;;;;;;;;12.80;33.90;;;11.71;32.73;101816.28;12245310;19;19907;-82
2023/06/04 05:18:29;;;;;;;;;;;12.90;33.70;;;11.73;32.62;101793.53;12243174;19;19930;-82
2023/06/04 05:22:33;;;;;;;;;;;13.10;33.90;;;11.67;32.87;101765.03;12246335;19;20261;-83
2023/06/04 05:26:36;;;;;;;;;;;13.20;34.20;;;11.97;32.80;101782.97;12243750;19;19970;-83
2023/06/04 05:30:44;;;;;;;;;;;13.40;34.20;;;12.28;32.83;101806.00;12246404;19;19923;-83
2023/06/04 05:34:47;;;;;;;;;;;13.60;34.40;;;12.46;32.88;101804.31;12241040;19;20356;-83
2023/06/04 05:38:56;;;;;;;;;;;13.80;34.70;;;12.47;33.39;101771.09;12244064;19;20445;-82
2023/06/04 05:42:59;;;;;;;;;;;14.00;35.20;;;12.96;33.10;101813.34;12245682;19;19926;-82
2023/06/04 05:47:02;;;;;;;;;;;14.30;34.80;;;13.27;33.39;101813.59;12249980;19;19919;-83
2023/06/04 05:51:05;;;;;;;;;;;14.60;35.20;;;13.37;33.37;101765.94;12257756;19;19975;-83
2023/06/04 05:55:08;;;;;;;;;;;14.90;35.10;;;13.95;33.50;101811.03;12255911;19;19915;-82
2023/06/04 05:59:13;;;;;;;;;;;15.30;35.50;;;14.30;33.56;101808.34;12256816;19;19930;-83
2023/06/04 06:03:16;;;;;;;;;;;15.70;35.30;;;14.69;33.58;101806.28;12259460;19;20356;-83
2023/06/04 06:07:21;;;;;;;;;;;16.10;34.40;;;15.01;33.47;101802.72;12264824;19;19918;-85
2023/06/04 06:11:22;;;;;;;;;;;16.50;34.50;;;15.45;33.56;101817.75;12266911;19;19928;-84
2023/06/04 06:15:24;;;;;;;;;;;16.90;34.30;;;15.68;33.64;101808.50;12265625;19;19919;-83
2023/06/04 06:19:27;;;;;;;;;;;17.30;34.20;;;16.11;33.67;101821.75;12259489;19;19907;-82
2023/06/04 06:23:29;;;;;;;;;;;17.60;34.10;;;16.48;33.88;101829.19;12258070;19;19926;-82
2023/06/04 06:27:31;;;;;;;;;;;18.00;34.10;;;16.70;33.56;101818.13;12251871;19;20335;-83
2023/06/04 06:31:32;;;;;;;;;;;18.30;33.40;;;17.01;33.60;101833.72;12254961;19;19922;-82
2023/06/04 06:35:34;;;;;;;;;;;18.60;33.20;;;17.28;33.43;101834.66;12256873;19;19911;-82
2023/06/04 06:39:35;;;;;;;;;;;18.90;33.20;;;17.46;33.49;101829.00;12257263;19;19939;-85
2023/06/04 06:43:37;;;;;;;;;;;19.10;33.00;;;17.61;33.29;101821.84;12259378;19;19911;-84
2023/06/04 06:47:38;;;;;;;;;;;19.30;32.90;;;17.89;33.19;101846.44;12254154;19;20361;-85
2023/06/04 06:51:40;;;;;;;;;;;19.50;32.80;;;18.06;33.41;101830.25;12257177;19;19925;-84
2023/06/04 06:55:42;;;;;;;;;;;19.70;32.60;;;18.19;33.26;101826.75;12254845;19;20549;-85
2023/06/04 06:59:43;;;;;;;;;;;19.90;32.40;;;18.44;32.99;101831.16;12256175;19;19939;-83
2023/06/04 07:03:45;;;;;;;;;;;20.00;32.30;;;18.64;33.02;101827.13;12252889;19;19921;-84
2023/06/04 07:07:47;;;;;;;;;;;20.20;32.30;;;18.79;32.94;101826.91;12254646;19;20337;-84
2023/06/04 07:11:49;;;;;;;;;;;20.40;32.10;;;19.07;33.13;101837.28;12256867;19;19923;-85
2023/06/04 07:15:51;;;;;;;;;;;20.60;32.10;;;19.19;32.88;101828.41;12258207;19;19930;-84
2023/06/04 07:19:52;;;;;;;;;;;20.80;32.10;;;19.42;33.16;101819.59;12260247;19;19933;-82
2023/06/04 07:23:54;;;;;;;;;;;21.00;32.20;;;19.64;32.85;101831.22;12257682;19;19926;-83
2023/06/04 07:27:57;;;;;;;;;;;21.20;31.60;;;19.87;32.91;101840.97;12254521;19;20333;-82
2023/06/04 07:31:59;;;;;;;;;;;21.40;31.70;;;20.01;32.74;101833.72;12255352;19;19961;-82
2023/06/04 07:36:01;;;;;;;;;;;21.60;29.70;;;20.15;32.69;101828.22;12251227;19;19946;-85
2023/06/04 07:40:03;;;;;;;;;;;21.80;31.00;;;20.41;32.29;101844.72;12250494;19;19918;-84
2023/06/04 07:44:05;;;;;;;;;;;21.90;30.00;;;20.53;32.33;101837.59;12254579;19;20251;-83
2023/06/04 07:48:08;;;;;;;;;;;22.10;30.40;;;20.73;32.41;101849.31;12246212;19;19926;-84
2023/06/04 07:52:09;;;;;;;;;;;22.20;30.10;;;20.83;32.59;101833.50;12249993;19;20377;-83
2023/06/04 07:56:11;;;;;;;;;;;22.40;30.90;;;21.09;32.03;101839.31;12247188;19;19919;-83
2023/06/04 08:00:14;;;;;;;;;;;22.50;30.10;;;21.27;31.90;101831.66;12250582;19;19991;-83
2023/06/04 08:04:15;;;;;;;;;;;22.70;30.60;;;21.41;32.29;101820.72;12250831;19;20312;-84
2023/06/04 08:08:17;;;;;;;;;;;22.90;30.60;;;21.51;31.97;101816.34;12243223;19;19942;-84
2023/06/04 08:12:18;;;;;;;;;;;23.00;28.00;;;21.64;31.94;101819.66;12251935;19;19907;-84
2023/06/04 08:16:20;;;;;;;;;;;23.10;28.90;;;21.81;31.86;101830.66;12247574;19;19925;-84
2023/06/04 08:20:22;;;;;;;;;;;23.20;29.90;;;21.99;31.56;101834.41;12250312;19;19922;-83
2023/06/04 08:24:23;;;;;;;;;;;23.30;29.20;;;21.98;31.30;101822.09;12252536;19;19915;-84
2023/06/04 08:28:25;;;;;;;;;;;23.40;29.70;;;22.10;31.23;101818.34;12252686;19;19915;-84
2023/06/04 08:32:30;;;;;;;;;;;23.50;29.90;;;22.33;31.66;101831.50;12240396;19;21351;-83
2023/06/04 08:36:34;;;;;;;;;;;23.60;29.20;;;22.31;31.56;101801.53;12251956;19;20349;-83
2023/06/04 08:40:36;;;;;;;;;;;23.70;30.00;;;22.62;31.15;101833.41;12258527;19;19937;-84
2023/06/04 08:44:38;;;;;;;;;;;23.90;29.50;;;22.68;31.01;101822.22;12253013;19;19915;-84
2023/06/04 08:48:40;;;;;;;;;;;24.00;29.70;;;22.90;31.10;101822.00;12248939;19;19911;-84
2023/06/04 08:52:42;;;;;;;;;;;24.20;29.20;;;23.07;30.83;101825.81;12249678;19;19926;-85
2023/06/04 08:56:44;;;;;;;;;;;24.40;29.90;;;23.26;31.16;101830.31;12251259;19;19939;-84
2023/06/04 09:00:45;;;;;;;;;;;24.60;29.00;;;23.35;31.15;101825.94;12253833;19;19998;-83
2023/06/04 09:04:47;;;;;;;;;;;24.70;29.80;;;23.56;31.05;101836.47;12256587;19;19919;-83
2023/06/04 09:08:49;;;;;;;;;;;24.90;29.60;;;23.66;30.65;101837.31;12255335;19;19914;-82
2023/06/04 09:12:51;;;;;;;;;;;25.00;29.40;;;23.75;30.64;101831.13;12258396;19;19926;-83
2023/06/04 09:16:55;;;;;;;;;;;25.10;28.90;;;23.84;30.53;101830.28;12252951;19;19919;-84
2023/06/04 09:21:07;;;;;;;;;;;25.10;29.40;;;23.97;30.28;101835.28;12262539;19;19950;-82
2023/06/04 09:25:20;;;;;;;;;;;25.20;28.60;;;24.06;30.22;101830.88;12266209;19;20034;-83
2023/06/04 09:29:22;;;;;;;;;;;25.30;29.00;;;24.19;30.65;101835.91;12264450;19;19943;-84
2023/06/04 09:33:26;;;;;;;;;;;25.40;29.20;;;24.25;30.25;101835.34;12265387;19;20356;-83
2023/06/04 09:37:28;;;;;;;;;;;25.50;27.00;;;24.24;29.68;101831.81;12262809;19;19936;-84
2023/06/04 09:41:29;;;;;;;;;;;25.50;27.50;;;24.20;29.68;101840.28;12271365;19;19922;-84
2023/06/04 09:45:35;;;;;;;;;;;25.50;28.00;;;24.20;29.70;101830.44;12267112;19;19918;-83
2023/06/04 09:49:46;;;;;;;;;;;25.40;28.60;;;24.28;29.65;101835.03;12265975;19;19915;-84
2023/06/04 09:53:55;;;;;;;;;;;25.50;28.90;;;24.36;29.58;101829.81;12270708;19;19940;-82
2023/06/04 09:57:58;;;;;;;;;;;25.50;28.50;;;24.43;29.92;101830.03;12267319;19;19918;-84
2023/06/04 10:02:00;;;;;;;;;;;25.60;28.80;;;24.54;29.77;101815.66;12267194;19;19919;-83
2023/06/04 10:06:04;;;;;;;;;;;25.70;29.20;;;24.78;29.65;101829.28;12265279;19;19982;-83
2023/06/04 10:10:08;;;;;;;;;;;25.80;27.80;;;24.81;29.59;101804.09;12271417;19;19919;-84
2023/06/04 10:14:25;;;;;;;;;;;26.00;29.20;;;24.98;29.39;101827.34;12266239;19;19926;-84
2023/06/04 10:18:29;;;;;;;;;;;26.10;28.50;;;25.04;28.99;101813.38;12267183;19;19914;-84
2023/06/04 10:22:38;;;;;;;;;;;26.20;29.20;;;25.09;29.40;101797.72;12266454;19;20351;-83
2023/06/04 10:26:41;;;;;;;;;;;26.40;29.20;;;25.24;29.52;101798.03;12265842;19;19915;-84
2023/06/04 10:30:43;;;;;;;;;;;26.40;29.10;;;25.35;29.39;101802.28;12266063;19;20416;-83
2023/06/04 10:34:46;;;;;;;;;;;26.50;28.70;;;25.51;28.96;101817.63;12266035;19;19930;-84
2023/06/04 10:38:52;;;;;;;;;;;26.70;29.20;;;25.62;29.45;101820.03;12266381;19;19919;-84
2023/06/04 10:42:55;;;;;;;;;;;26.70;29.00;;;25.58;29.09;101802.63;12266165;19;19930;-84
2023/06/04 10:46:57;;;;;;;;;;;26.80;29.20;;;25.69;28.79;101807.72;12262303;19;19907;-84
2023/06/04 10:50:58;;;;;;;;;;;26.80;28.50;;;25.76;29.04;101806.09;12267166;19;19938;-84
2023/06/04 10:55:04;;;;;;;;;;;26.90;28.40;;;25.73;28.65;101797.53;12259281;19;19919;-84
2023/06/04 10:59:14;;;;;;;;;;;27.00;28.80;;;25.83;28.88;101803.63;12263064;19;19915;-84
2023/06/04 11:03:16;;;;;;;;;;;27.00;28.90;;;25.94;28.90;101810.56;12265419;19;19915;-84
2023/06/04 11:07:18;;;;;;;;;;;27.00;28.30;;;25.94;28.75;101802.53;12257216;19;20265;-84
2023/06/04 11:11:19;;;;;;;;;;;27.10;28.90;;;26.01;28.69;101795.56;12261680;19;19915;-83
2023/06/04 11:15:20;;;;;;;;;;;27.10;28.20;;;26.02;28.36;101787.34;12259991;19;19918;-83
2023/06/04 11:19:22;;;;;;;;;;;27.20;28.80;;;26.12;28.43;101791.75;12261303;19;19919;-83
2023/06/04 11:23:24;;;;;;;;;;;27.20;28.80;;;26.13;28.29;101796.09;12264488;19;19946;-83
2023/06/04 11:27:26;;;;;;;;;;;27.20;28.00;;;25.97;28.01;101781.63;12258931;19;19986;-83
2023/06/04 11:31:27;;;;;;;;;;;27.20;28.30;;;25.90;28.08;101782.47;12261423;19;19926;-84
2023/06/04 11:35:29;;;;;;;;;;;27.20;28.60;;;25.92;28.17;101786.63;12256911;19;19930;-84
2023/06/04 11:39:35;;;;;;;;;;;27.10;28.60;;;25.91;27.97;101765.38;12261651;19;19974;-84
2023/06/04 11:43:39;;;;;;;;;;;27.10;28.60;;;26.10;28.28;101775.84;12259464;19;20036;-83
2023/06/04 11:47:52;;;;;;;;;;;27.20;28.10;;;26.20;27.87;101779.25;12261137;19;20378;-82
2023/06/04 11:51:54;;;;;;;;;;;27.20;27.90;;;26.28;27.79;101783.78;12260482;19;19931;-83
2023/06/04 11:55:56;;;;;;;;;;;27.30;28.50;;;26.36;27.87;101789.19;12254358;19;19919;-83
2023/06/04 11:59:58;;;;;;;;;;;27.30;28.50;;;26.33;27.74;101762.72;12255747;19;19947;-82
2023/06/04 12:03:59;;;;;;;;;;;27.40;28.20;;;26.49;27.75;101786.00;12255081;19;19915;-84
2023/06/04 12:08:06;;;;;;;;;;;27.50;28.20;;;26.53;27.49;101789.25;12253601;19;19915;-83
2023/06/04 12:12:08;;;;;;;;;;;27.50;27.40;;;26.47;27.40;101778.16;12254788;19;19938;-84
2023/06/04 12:16:14;;;;;;;;;;;27.60;28.10;;;26.53;27.73;101781.22;12252453;19;20345;-83
2023/06/04 12:20:15;;;;;;;;;;;27.60;28.00;;;26.50;27.82;101768.94;12250566;19;19919;-83
2023/06/04 12:24:17;;;;;;;;;;;27.60;27.90;;;26.63;27.64;101782.75;12249381;19;19930;-82
2023/06/04 12:28:19;;;;;;;;;;;27.60;27.80;;;26.48;27.49;101744.16;12249724;19;19922;-83
2023/06/04 12:32:21;;;;;;;;;;;27.60;28.50;;;26.61;27.48;101770.50;12253036;19;19915;-82
2023/06/04 12:36:22;;;;;;;;;;;27.60;27.70;;;26.42;27.24;101734.94;12248299;19;19923;-83
2023/06/04 12:40:24;;;;;;;;;;;27.50;26.40;;;26.72;27.28;101769.34;12253043;19;19915;-85
2023/06/04 12:44:25;;;;;;;;;;;27.70;27.80;;;26.67;27.43;101751.09;12255109;19;20316;-84
2023/06/04 12:48:27;;;;;;;;;;;27.70;27.60;;;26.82;27.22;101770.06;12250682;19;19926;-83
2023/06/04 12:52:28;;;;;;;;;;;27.70;27.20;;;26.86;27.34;101768.69;12255620;19;19915;-83
2023/06/04 12:56:30;;;;;;;;;;;27.80;27.70;;;26.90;26.99;101765.53;12259598;19;19926;-83
2023/06/04 13:00:32;;;;;;;;;;;27.80;26.80;;;26.92;26.70;101755.47;12267820;19;20396;-83
2023/06/04 13:04:33;;;;;;;;;;;27.80;27.10;;;26.88;26.90;101738.03;12264504;19;19915;-84
2023/06/04 13:08:36;;;;;;;;;;;27.90;27.60;;;26.97;27.00;101743.41;12265394;19;20293;-83
2023/06/04 13:12:37;;;;;;;;;;;27.90;27.80;;;27.11;26.66;101765.03;12267090;19;19915;-83
2023/06/04 13:16:39;;;;;;;;;;;28.00;27.80;;;27.13;26.62;101759.47;12261544;19;19946;-84
2023/06/04 13:20:41;;;;;;;;;;;28.00;26.70;;;27.09;26.90;101756.31;12268520;19;19919;-83
2023/06/04 13:24:42;;;;;;;;;;;28.00;27.50;;;26.97;26.98;101716.59;12263976;19;19918;-83
2023/06/04 13:28:44;;;;;;;;;;;28.00;26.60;;;27.13;26.43;101764.84;12261778;19;19914;-83
2023/06/04 13:32:46;;;;;;;;;;;28.00;27.10;;;27.13;26.68;101754.13;12264596;19;19922;-83
2023/06/04 13:36:47;;;;;;;;;;;28.00;25.50;;;27.14;26.51;101742.41;12264161;19;20008;-83
2023/06/04 13:40:49;;;;;;;;;;;28.00;26.70;;;27.05;26.49;101724.63;12265911;19;19933;-83
2023/06/04 13:44:51;;;;;;;;;;;28.00;26.30;;;27.10;26.49;101749.09;12266255;19;19914;-83
2023/06/04 13:48:52;;;;;;;;;;;28.00;27.30;;;27.05;26.56;101746.09;12262545;19;20329;-84
2023/06/04 13:52:54;;;;;;;;;;;28.00;26.60;;;27.08;26.22;101737.69;12265355;19;19926;-82
2023/06/04 13:56:55;;;;;;;;;;;28.00;25.90;;;27.09;26.14;101744.75;12263572;19;19926;-83
2023/06/04 14:00:56;;;;;;;;;;;28.00;27.50;;;27.12;26.10;101722.97;12264864;19;19914;-83
2023/06/04 14:04:58;;;;;;;;;;;28.00;27.80;;;27.20;26.15;101728.34;12262791;19;19922;-84
2023/06/04 14:08:59;;;;;;;;;;;28.00;27.40;;;27.20;26.06;101708.75;12261067;19;19922;-84
2023/06/04 14:13:01;;;;;;;;;;;28.10;27.50;;;27.33;26.10;101722.47;12267150;19;19922;-83
2023/06/04 14:17:03;;;;;;;;;;;28.20;26.90;;;27.28;25.88;101708.72;12263852;19;19915;-83
2023/06/04 14:21:05;;;;;;;;;;;28.20;25.50;;;27.21;26.15;101710.41;12268173;19;19915;-83
2023/06/04 14:25:07;;;;;;;;;;;28.20;25.30;;;27.34;25.73;101719.59;12263383;19;19915;-83
2023/06/04 14:29:09;;;;;;;;;;;28.20;26.30;;;27.33;25.67;101717.94;12262413;19;19915;-83
2023/06/04 14:33:10;;;;;;;;;;;28.20;25.30;;;27.29;25.41;101716.59;12266388;19;19946;-83
2023/06/04 14:37:12;;;;;;;;;;;28.20;26.00;;;27.19;25.28;101721.28;12262510;19;19923;-82
2023/06/04 14:41:14;;;;;;;;;;;28.10;27.20;;;27.05;25.48;101704.00;12261738;19;19923;-82
2023/06/04 14:45:16;;;;;;;;;;;28.00;27.30;;;27.14;25.39;101711.06;12255070;19;19930;-82
2023/06/04 14:49:17;;;;;;;;;;;28.00;27.20;;;27.16;25.39;101700.13;12255608;19;20549;-83
2023/06/04 14:53:19;;;;;;;;;;;28.00;27.00;;;27.23;25.57;101711.91;12258682;19;20333;-83
2023/06/04 14:57:21;;;;;;;;;;;28.00;25.80;;;26.88;25.01;101654.94;12257610;19;19927;-83
2023/06/04 15:01:23;;;;;;;;;;;28.00;27.10;;;27.25;25.21;101703.72;12261292;19;20483;-83
2023/06/04 15:05:25;;;;;;;;;;;28.00;27.10;;;27.31;24.88;101705.69;12259146;19;19923;-83
2023/06/04 15:09:27;;;;;;;;;;;28.10;27.10;;;27.33;25.32;101696.47;12257038;19;19939;-83
2023/06/04 15:13:28;;;;;;;;;;;28.10;24.70;;;27.28;25.29;101689.94;12259709;19;19922;-84
2023/06/04 15:17:36;;;;;;;;;;;28.10;25.60;;;27.11;25.12;101670.31;12248563;19;20337;-83
2023/06/04 15:21:38;;;;;;;;;;;28.00;26.10;;;27.22;25.01;101686.09;12261446;19;19923;-83
2023/06/04 15:25:40;;;;;;;;;;;28.10;26.40;;;27.27;24.94;101686.41;12262068;19;19919;-83
2023/06/04 15:29:43;;;;;;;;;;;28.00;27.00;;;27.23;25.16;101687.78;12257959;19;20551;-83
2023/06/04 15:33:44;;;;;;;;;;;28.00;27.10;;;27.22;24.62;101679.88;12263362;19;19974;-85
2023/06/04 15:37:46;;;;;;;;;;;28.00;26.00;;;27.30;24.84;101690.59;12260894;19;19919;-84
2023/06/04 15:41:47;;;;;;;;;;;28.10;27.00;;;27.22;24.25;101691.47;12261829;19;19917;-85
2023/06/04 15:45:48;;;;;;;;;;;28.00;26.00;;;27.21;24.83;101694.31;12258183;19;19927;-84
2023/06/04 15:49:50;;;;;;;;;;;28.00;25.10;;;27.13;24.27;101695.94;12259645;19;20477;-85
2023/06/04 15:53:52;;;;;;;;;;;28.00;27.20;;;27.12;24.76;101696.97;12251626;19;19911;-84
2023/06/04 15:57:53;;;;;;;;;;;27.90;26.60;;;27.12;24.58;101696.16;12258950;19;20369;-84
2023/06/04 16:01:54;;;;;;;;;;;27.90;26.50;;;27.08;24.51;101694.78;12249993;19;19919;-83
2023/06/04 16:05:56;;;;;;;;;;;27.90;26.50;;;27.03;24.68;101670.31;12257378;19;19918;-84
2023/06/04 16:09:58;;;;;;;;;;;27.80;26.00;;;27.08;24.89;101670.66;12257144;19;19919;-85
2023/06/04 16:13:59;;;;;;;;;;;27.80;26.80;;;26.97;24.53;101652.25;12258429;19;20377;-84
2023/06/04 16:18:00;;;;;;;;;;;27.90;26.60;;;27.14;24.56;101675.38;12255960;19;19918;-84
2023/06/04 16:22:02;;;;;;;;;;;27.90;26.90;;;27.18;24.60;101675.88;12257187;19;19919;-83
2023/06/04 16:26:03;;;;;;;;;;;27.80;27.30;;;27.21;24.59;101671.00;12255776;19;19919;-84
2023/06/04 16:30:05;;;;;;;;;;;27.90;26.70;;;27.20;24.52;101672.03;12258693;19;19926;-84
2023/06/04 16:34:08;;;;;;;;;;;27.90;24.60;;;27.04;24.79;101653.25;12259688;19;19918;-84
2023/06/04 16:38:09;;;;;;;;;;;27.80;26.60;;;27.08;24.64;101666.13;12261176;19;19921;-84
2023/06/04 16:42:12;;;;;;;;;;;27.80;27.40;;;26.97;24.56;101645.03;12259282;19;19915;-84
2023/06/04 16:46:14;;;;;;;;;;;27.80;26.90;;;27.08;24.47;101667.97;12257499;19;19922;-84
2023/06/04 16:50:16;;;;;;;;;;;27.80;26.90;;;26.99;24.35;101655.59;12259181;19;19939;-83
2023/06/04 16:54:18;;;;;;;;;;;27.70;26.30;;;26.92;24.12;101664.34;12259689;19;19926;-84
2023/06/04 16:58:19;;;;;;;;;;;27.70;26.60;;;26.82;24.35;101652.94;12258341;19;19918;-84
2023/06/04 17:02:21;;;;;;;;;;;27.60;26.90;;;26.85;24.37;101660.63;12260953;19;19911;-85
2023/06/04 17:06:22;;;;;;;;;;;27.60;27.10;;;26.84;24.59;101661.66;12259570;19;19928;-84
2023/06/04 17:10:28;;;;;;;;;;;27.50;27.20;;;26.78;24.43;101659.63;12260661;19;19940;-84
2023/06/04 17:14:30;;;;;;;;;;;27.50;26.70;;;26.65;24.38;101648.56;12260986;19;19919;-84
2023/06/04 17:18:31;;;;;;;;;;;27.40;27.00;;;26.57;24.21;101651.25;12263014;19;19926;-84
2023/06/04 17:22:33;;;;;;;;;;;27.40;26.90;;;26.59;24.37;101662.66;12263879;19;19922;-84
2023/06/04 17:26:35;;;;;;;;;;;27.30;26.90;;;26.50;24.47;101661.78;12261372;19;19923;-84
2023/06/04 17:30:36;;;;;;;;;;;27.20;27.00;;;26.40;24.23;101661.09;12266085;19;19933;-85
2023/06/04 17:34:38;;;;;;;;;;;27.20;27.20;;;26.31;24.62;101657.59;12264746;19;19923;-85
2023/06/04 17:38:39;;;;;;;;;;;27.10;27.00;;;26.23;24.35;101654.91;12264968;19;19919;-84
2023/06/04 17:42:46;;;;;;;;;;;27.10;27.10;;;26.21;24.26;101667.59;12276752;19;19926;-83
2023/06/04 17:46:47;;;;;;;;;;;27.00;27.20;;;25.94;24.27;101637.41;12277196;19;19942;-84
2023/06/04 17:50:48;;;;;;;;;;;26.90;27.10;;;26.09;24.44;101675.13;12260158;19;19918;-85
2023/06/04 17:54:50;;;;;;;;;;;26.80;26.80;;;25.97;24.69;101676.41;12253054;19;19922;-85
2023/06/04 17:58:51;;;;;;;;;;;26.70;26.90;;;25.86;24.76;101672.19;12259057;19;19919;-85
2023/06/04 18:02:52;;;;;;;;;;;26.60;27.20;;;25.82;24.43;101676.16;12254113;19;20244;-85
2023/06/04 18:06:54;;;;;;;;;;;26.50;27.20;;;25.68;24.48;101666.06;12258043;19;19919;-85
2023/06/04 18:10:56;;;;;;;;;;;26.40;27.30;;;25.72;24.69;101684.31;12258080;19;19923;-85